Time;durP1;ratioP1;P1;durP2;ratioP2;P2;SDS_P1;SDS_P2;PMS_P1;PMS_P2;Temp;Humidity;BMP_temperature;BMP_pressure;BME280_temperature;BME280_humidity;BME280_pressure;Samples;Min_cycle;Max_cycle;Signal;HPM_P1;HPM_P2
2021/07/11 00:01:19;;;;;;;;;;;17.10;99.90;;;;;;5054207;28;20041;-76
2021/07/11 00:03:45;;;;;;;11.93;4.03;;;17.40;99.90;;;;;;5054195;28;19904;-77
2021/07/11 00:06:11;;;;;;;;;;;17.50;99.80;;;;;;5054329;28;20079;-77
2021/07/11 00:08:37;;;;;;;8.63;3.78;;;17.30;99.90;;;;;;5054156;28;19955;-76
2021/07/11 00:11:02;;;;;;;;;;;17.40;99.70;;;;;;5053133;28;20017;-74
2021/07/11 00:13:28;;;;;;;8.75;3.97;;;17.40;99.90;;;;;;5052765;28;19912;-76
2021/07/11 00:15:54;;;;;;;;;;;17.50;99.60;;;;;;5054393;28;20367;-76
2021/07/11 00:18:19;;;;;;;8.80;3.60;;;17.50;99.30;;;;;;5054041;28;19905;-78
2021/07/11 00:20:45;;;;;;;;;;;17.40;99.60;;;;;;5052991;28;20407;-76
2021/07/11 00:23:11;;;;;;;14.93;4.55;;;17.10;99.90;;;;;;5053032;28;19905;-77
2021/07/11 00:25:37;;;;;;;;;;;17.00;99.90;;;;;;5052980;28;20033;-76
2021/07/11 00:28:03;;;;;;;12.18;4.40;;;17.00;99.90;;;;;;5053781;28;19905;-76
2021/07/11 00:30:28;;;;;;;;;;;16.90;99.90;;;;;;5052863;28;20024;-76
2021/07/11 00:32:54;;;;;;;7.32;3.80;;;16.80;99.90;;;;;;5053709;28;19911;-77
2021/07/11 00:35:20;;;;;;;;;;;16.90;99.90;;;;;;5054091;28;20469;-77
2021/07/11 00:37:46;;;;;;;11.13;4.72;;;17.10;99.90;;;;;;5053635;28;19940;-76
2021/07/11 00:40:12;;;;;;;;;;;17.20;99.90;;;;;;5054103;28;20126;-77
2021/07/11 00:42:40;;;;;;;10.82;3.80;;;17.20;99.90;;;;;;5053493;28;19909;-75
2021/07/11 00:45:08;;;;;;;11.63;4.40;;;17.40;99.90;;;;;;5053497;28;20481;-76
2021/07/11 00:47:37;;;;;;;16.42;4.00;;;17.50;99.90;;;;;;5053399;28;20096;-76
2021/07/11 00:50:06;;;;;;;10.52;4.20;;;17.60;99.80;;;;;;5052176;28;20028;-76
2021/07/11 00:52:32;;;;;;;8.80;3.60;;;17.70;99.70;;;;;;5052159;28;20112;-76
2021/07/11 00:54:57;;;;;;;;;;;17.60;99.90;;;;;;5053827;28;20056;-76
2021/07/11 00:57:23;;;;;;;17.02;4.32;;;17.60;99.80;;;;;;5053344;28;20373;-75
2021/07/11 00:59:48;;;;;;;;;;;17.50;99.90;;;;;;5053833;28;20052;-76
2021/07/11 01:02:23;;;;;;;10.88;4.05;;;17.30;99.90;;;;;;5053361;28;19962;-74
2021/07/11 01:04:57;;;;;;;8.73;4.22;;;17.20;99.90;;;;;;5053402;28;20072;-77
2021/07/11 01:07:48;;;;;;;14.50;4.45;;;17.40;99.90;;;;;;5051618;28;20029;-76
2021/07/11 01:10:24;;;;;;;13.10;4.22;;;17.40;99.90;;;;;;5053397;28;20021;-76
2021/07/11 01:12:54;;;;;;;13.52;4.05;;;17.30;99.90;;;;;;5053285;28;20029;-75
2021/07/11 01:15:20;;;;;;;8.23;3.80;;;17.50;99.90;;;;;;5053214;28;20493;-75
2021/07/11 01:17:46;;;;;;;9.68;3.88;;;17.60;99.90;;;;;;5053110;28;20443;-75
2021/07/11 01:20:25;;;;;;;9.40;4.10;;;17.60;99.90;;;;;;5053042;28;20029;-76
2021/07/11 01:22:53;;;;;;;11.55;4.28;;;17.50;99.90;;;;;;5053020;28;20082;-76
2021/07/11 01:25:45;;;;;;;10.30;3.70;;;17.50;99.90;;;;;;5052990;28;20193;-76
2021/07/11 01:28:15;;;;;;;11.48;4.60;;;17.60;99.90;;;;;;5052966;28;20040;-75
2021/07/11 01:30:42;;;;;;;13.73;4.40;;;17.60;99.90;;;;;;5053017;28;20021;-76
2021/07/11 01:33:10;;;;;;;10.13;4.10;;;17.70;99.90;;;;;;5053378;28;20043;-75
2021/07/11 01:35:37;;;;;;;9.35;4.28;;;17.80;99.90;;;;;;5055746;28;20136;-76
2021/07/11 01:38:05;;;;;;;15.77;5.40;;;17.70;99.90;;;;;;5057398;28;20021;-76
2021/07/11 01:40:31;;;;;;;12.68;4.88;;;17.80;99.90;;;;;;5056913;28;20480;-75
2021/07/11 01:42:58;;;;;;;11.45;4.88;;;17.90;99.90;;;;;;5056983;28;20024;-76
2021/07/11 01:45:24;;;;;;;11.95;4.55;;;17.90;99.90;;;;;;5056850;28;20017;-76
2021/07/11 01:47:50;;;;;;;;;;;17.80;99.90;;;;;;5055824;28;20028;-75
2021/07/11 01:50:16;;;;;;;11.75;4.80;;;17.70;99.90;;;;;;5056809;28;19904;-77
2021/07/11 01:52:42;;;;;;;;;;;17.60;99.90;;;;;;5057233;28;20491;-76
2021/07/11 01:55:10;;;;;;;9.90;4.35;;;17.60;99.90;;;;;;5056561;28;19904;-76
2021/07/11 01:57:37;;;;;;;12.00;5.15;;;17.70;99.90;;;;;;5056502;28;20450;-76
2021/07/11 02:00:12;;;;;;;8.13;4.28;;;17.70;99.90;;;;;;5054921;28;20045;-77
2021/07/11 02:02:38;;;;;;;13.60;4.82;;;17.70;99.90;;;;;;5056243;28;20028;-76
2021/07/11 02:05:08;;;;;;;14.45;4.68;;;17.70;99.90;;;;;;5055038;28;20025;-76
2021/07/11 02:07:34;;;;;;;9.02;4.60;;;17.80;99.90;;;;;;5056707;28;20017;-75
2021/07/11 02:10:00;;;;;;;14.23;4.90;;;17.90;99.90;;;;;;5056252;28;20103;-76
2021/07/11 02:12:30;;;;;;;9.90;5.00;;;17.80;99.90;;;;;;5054941;28;20021;-76
2021/07/11 02:14:57;;;;;;;11.15;5.30;;;17.80;99.90;;;;;;5056175;28;20036;-76
2021/07/11 02:17:26;;;;;;;12.82;5.80;;;17.80;99.90;;;;;;5056344;28;20385;-75
2021/07/11 02:19:52;;;;;;;21.63;6.18;;;17.90;99.90;;;;;;5056039;28;20029;-76
2021/07/11 02:22:19;;;;;;;16.25;5.85;;;17.80;99.90;;;;;;5054661;28;20049;-76
2021/07/11 02:24:46;;;;;;;12.35;5.80;;;17.70;99.90;;;;;;5055871;28;20032;-76
2021/07/11 02:27:12;;;;;;;15.57;5.80;;;17.70;99.90;;;;;;5056205;28;20390;-76
2021/07/11 02:29:44;;;;;;;12.52;5.90;;;17.70;99.90;;;;;;5055880;28;20021;-77
2021/07/11 02:32:14;;;;;;;10.30;6.13;;;17.70;99.90;;;;;;5054282;28;20059;-76
2021/07/11 02:34:43;;;;;;;11.05;5.10;;;17.60;99.90;;;;;;5054502;28;20033;-74
2021/07/11 02:37:13;;;;;;;14.50;6.22;;;17.50;99.90;;;;;;5055788;28;20025;-75
2021/07/11 02:39:43;;;;;;;15.20;5.95;;;17.60;99.90;;;;;;5055957;28;20126;-76
2021/07/11 02:42:12;;;;;;;14.75;6.05;;;17.50;99.90;;;;;;5056051;28;20159;-76
2021/07/11 02:44:42;;;;;;;12.35;5.35;;;17.30;99.90;;;;;;5055178;28;20040;-76
2021/07/11 02:47:24;;;;;;;13.05;5.32;;;17.30;99.90;;;;;;5055542;28;20017;-77
2021/07/11 02:49:53;;;;;;;13.10;5.88;;;17.50;99.90;;;;;;5053988;28;20021;-75
2021/07/11 02:52:21;;;;;;;16.13;6.13;;;17.30;99.90;;;;;;5054195;28;20455;-76
2021/07/11 02:55:07;;;;;;;10.05;5.80;;;17.20;99.90;;;;;;5055443;28;20021;-77
2021/07/11 02:57:36;;;;;;;15.90;7.20;;;17.10;99.90;;;;;;5055115;28;20063;-76
2021/07/11 03:00:05;;;;;;;13.52;7.25;;;16.90;99.90;;;;;;5055122;28;20064;-76
2021/07/11 03:02:33;;;;;;;13.05;6.50;;;16.90;99.90;;;;;;5055183;28;20028;-76
2021/07/11 03:05:00;;;;;;;13.30;7.13;;;16.80;99.90;;;;;;5055386;28;20478;-77
2021/07/11 03:07:27;;;;;;;14.15;6.75;;;16.90;99.90;;;;;;5055222;28;20025;-75
2021/07/11 03:09:53;;;;;;;12.23;6.35;;;17.10;99.90;;;;;;5055188;28;20021;-76
2021/07/11 03:12:19;;;;;;;;;;;17.20;99.90;;;;;;5055798;28;20032;-75
2021/07/11 03:14:49;;;;;;;18.02;6.70;;;17.20;99.90;;;;;;5055285;28;19906;-76
2021/07/11 03:17:19;;;;;;;14.90;6.78;;;17.20;99.90;;;;;;5055041;28;20029;-77
2021/07/11 03:19:46;;;;;;;13.27;7.13;;;17.20;99.90;;;;;;5053676;28;20033;-77
2021/07/11 03:22:15;;;;;;;14.40;7.38;;;17.00;99.90;;;;;;5054890;28;20037;-76
2021/07/11 03:24:41;;;;;;;11.55;6.78;;;17.00;99.90;;;;;;5054812;28;20021;-75
2021/07/11 03:27:06;;;;;;;;;;;17.00;99.90;;;;;;5055594;28;20021;-77
2021/07/11 03:29:41;;;;;;;18.50;7.28;;;16.90;99.90;;;;;;5054832;28;19951;-77
2021/07/11 03:32:09;;;;;;;14.35;6.75;;;16.80;99.90;;;;;;5054835;28;20405;-75
2021/07/11 03:34:35;;;;;;;16.70;7.32;;;17.00;99.90;;;;;;5054900;28;20075;-75
2021/07/11 03:37:07;;;;;;;;;;;17.00;99.90;;;;;;5055067;28;20028;-75
2021/07/11 03:39:38;;;;;;;13.90;7.30;;;16.90;99.90;;;;;;5054696;28;20333;-76
2021/07/11 03:42:08;;;;;;;16.15;7.60;;;16.80;99.90;;;;;;5054507;28;20032;-76
2021/07/11 03:44:35;;;;;;;15.23;7.38;;;16.90;99.90;;;;;;5053516;28;20124;-75
2021/07/11 03:47:04;;;;;;;20.15;7.68;;;17.00;99.90;;;;;;5054538;28;20050;-76
2021/07/11 03:49:32;;;;;;;17.67;7.45;;;17.00;99.90;;;;;;5054314;28;20028;-76
2021/07/11 03:52:03;;;;;;;15.52;7.75;;;17.00;99.90;;;;;;5054451;28;20107;-76
2021/07/11 03:54:32;;;;;;;12.38;7.28;;;17.00;99.90;;;;;;5054330;28;20052;-76
2021/07/11 03:56:59;;;;;;;12.40;6.78;;;16.90;99.90;;;;;;5054238;28;20040;-76
2021/07/11 03:59:27;;;;;;;16.30;7.18;;;17.00;99.90;;;;;;5054119;28;20041;-75
2021/07/11 04:01:53;;;;;;;15.05;7.75;;;17.00;99.90;;;;;;5054154;28;20033;-76
2021/07/11 04:04:22;;;;;;;16.02;7.63;;;17.00;99.90;;;;;;5054166;28;20478;-75
2021/07/11 04:06:50;;;;;;;15.45;7.72;;;17.00;99.90;;;;;;5052534;28;20116;-76
2021/07/11 04:09:19;;;;;;;14.35;7.10;;;17.00;99.90;;;;;;5054006;28;20024;-76
2021/07/11 04:11:47;;;;;;;13.52;7.22;;;17.00;99.90;;;;;;5054092;28;20025;-75
2021/07/11 04:14:20;;;;;;;16.08;7.15;;;17.00;99.90;;;;;;5053912;28;20025;-76
2021/07/11 04:16:49;;;;;;;13.75;7.43;;;16.80;99.90;;;;;;5054154;28;20455;-76
2021/07/11 04:19:27;;;;;;;14.82;8.00;;;16.80;99.90;;;;;;5053823;28;20051;-75
2021/07/11 04:21:54;;;;;;;12.20;6.00;;;16.80;99.90;;;;;;5053763;28;20017;-77
2021/07/11 04:24:23;;;;;;;17.70;6.85;;;16.90;99.90;;;;;;5053665;28;20025;-75
2021/07/11 04:26:49;;;;;;;16.77;7.60;;;17.20;99.90;;;;;;5054068;28;20482;-77
2021/07/11 04:29:16;;;;;;;14.73;7.50;;;17.00;99.90;;;;;;5053686;28;20120;-76
2021/07/11 04:31:46;;;;;;;15.02;6.53;;;16.90;99.90;;;;;;5052340;28;20025;-76
2021/07/11 04:34:28;;;;;;;11.35;6.90;;;17.00;99.90;;;;;;5053671;28;20020;-77
2021/07/11 04:36:57;;;;;;;11.90;7.32;;;17.10;99.90;;;;;;5053574;28;20083;-76
2021/07/11 04:39:22;;;;;;;13.80;7.25;;;17.00;99.90;;;;;;5053708;28;20477;-76
2021/07/11 04:41:49;;;;;;;14.18;7.57;;;17.10;99.90;;;;;;5053451;28;20021;-75
2021/07/11 04:44:15;;;;;;;14.60;7.65;;;17.00;99.90;;;;;;5053379;28;20029;-75
2021/07/11 04:46:40;;;;;;;;;;;16.80;99.90;;;;;;5053754;28;20096;-75
2021/07/11 04:49:06;;;;;;;15.02;7.70;;;16.60;99.90;;;;;;5053426;28;20005;-76
2021/07/11 04:51:32;;;;;;;;;;;16.50;99.90;;;;;;5053943;28;20086;-76
2021/07/11 04:53:58;;;;;;;14.65;7.70;;;16.50;99.90;;;;;;5053297;28;19904;-75
2021/07/11 04:56:24;;;;;;;15.35;7.57;;;16.40;99.90;;;;;;5053497;28;20025;-74
2021/07/11 04:58:50;;;;;;;15.75;7.93;;;16.30;99.90;;;;;;5053496;28;20017;-76
2021/07/11 05:01:16;;;;;;;;;;;16.30;99.90;;;;;;5053056;28;20033;-75
2021/07/11 05:03:41;;;;;;;17.63;8.48;;;16.30;99.90;;;;;;5053149;28;19904;-75
2021/07/11 05:06:07;;;;;;;;;;;16.30;99.90;;;;;;5053529;28;20032;-76
2021/07/11 05:08:33;;;;;;;20.30;8.63;;;16.30;99.90;;;;;;5052675;28;20324;-76
2021/07/11 05:10:58;;;;;;;;;;;16.30;99.90;;;;;;5053470;28;20040;-76
2021/07/11 05:13:24;;;;;;;18.30;8.77;;;16.40;99.90;;;;;;5053175;28;19905;-75
2021/07/11 05:15:50;;;;;;;16.13;8.70;;;16.40;99.90;;;;;;5053064;28;20028;-75
2021/07/11 05:18:16;;;;;;;;;;;16.40;99.90;;;;;;5053431;28;20052;-76
2021/07/11 05:20:42;;;;;;;13.77;8.80;;;16.40;99.90;;;;;;5051616;28;19979;-75
2021/07/11 05:23:07;;;;;;;;;;;16.40;99.90;;;;;;5053315;28;20366;-76
2021/07/11 05:25:33;;;;;;;16.20;8.20;;;16.50;99.90;;;;;;5053045;28;19904;-76
2021/07/11 05:28:03;;;;;;;;;;;16.50;99.90;;;;;;5051947;28;20053;-77
2021/07/11 05:30:29;;;;;;;16.63;8.30;;;16.60;99.90;;;;;;5052837;28;20388;-75
2021/07/11 05:32:55;;;;;;;13.02;7.88;;;16.60;99.90;;;;;;5052903;28;20025;-77
2021/07/11 05:35:21;;;;;;;15.45;7.95;;;16.60;99.90;;;;;;5052975;28;20032;-76
2021/07/11 05:37:47;;;;;;;;;;;16.80;99.90;;;;;;5053226;28;20099;-76
2021/07/11 05:40:15;;;;;;;14.93;8.13;;;16.70;99.90;;;;;;5052714;28;20356;-75
2021/07/11 05:42:42;;;;;;;16.58;8.20;;;16.80;99.90;;;;;;5051341;28;20025;-74
2021/07/11 05:45:09;;;;;;;20.85;8.32;;;16.80;99.90;;;;;;5052863;28;20025;-75
2021/07/11 05:47:34;;;;;;;14.77;7.90;;;16.90;99.90;;;;;;5052653;28;20021;-76
2021/07/11 05:50:00;;;;;;;;;;;17.20;99.90;;;;;;5053206;28;20024;-76
2021/07/11 05:52:26;;;;;;;14.25;7.50;;;17.10;99.90;;;;;;5052661;28;19912;-75
2021/07/11 05:54:51;;;;;;;;;;;17.10;99.90;;;;;;5053086;28;20040;-75
2021/07/11 05:57:18;;;;;;;13.07;6.97;;;17.20;99.90;;;;;;5052997;28;19951;-76
2021/07/11 05:59:45;;;;;;;15.70;7.68;;;17.30;99.90;;;;;;5052396;28;20394;-76
2021/07/11 06:02:10;;;;;;;14.52;7.30;;;17.30;99.90;;;;;;5052574;28;20033;-75
2021/07/11 06:04:36;;;;;;;;;;;17.20;99.90;;;;;;5052912;28;20485;-76
2021/07/11 06:07:02;;;;;;;16.02;8.30;;;17.30;99.90;;;;;;5052488;28;20391;-76
2021/07/11 06:09:28;;;;;;;14.48;7.55;;;17.30;99.90;;;;;;5052527;28;20025;-75
2021/07/11 06:11:54;;;;;;;16.10;7.47;;;17.30;99.90;;;;;;5052473;28;20028;-75
2021/07/11 06:14:20;;;;;;;;;;;17.40;99.90;;;;;;5052917;28;20505;-76
2021/07/11 06:16:45;;;;;;;15.02;7.85;;;17.70;99.90;;;;;;5052425;28;19904;-76
2021/07/11 06:19:14;;;;;;;;;;;17.50;99.90;;;;;;5052990;28;20040;-76
2021/07/11 06:21:40;;;;;;;17.17;7.10;;;17.40;99.90;;;;;;5055059;28;19958;-77
2021/07/11 06:24:06;;;;;;;14.15;6.85;;;17.50;99.90;;;;;;5056046;28;20487;-76
2021/07/11 06:26:32;;;;;;;16.58;7.03;;;17.60;99.90;;;;;;5055861;28;20017;-77
2021/07/11 06:28:58;;;;;;;;;;;17.80;99.90;;;;;;5056401;28;20091;-75
2021/07/11 06:31:24;;;;;;;16.08;7.65;;;17.80;99.90;;;;;;5055887;28;19996;-77
2021/07/11 06:33:49;;;;;;;14.50;6.63;;;17.80;99.90;;;;;;5055851;28;20032;-75
2021/07/11 06:36:15;;;;;;;16.52;7.03;;;17.90;99.90;;;;;;5055750;28;20031;-76
2021/07/11 06:38:41;;;;;;;17.20;7.03;;;17.90;99.90;;;;;;5054335;28;20025;-75
2021/07/11 06:41:07;;;;;;;;;;;17.80;99.90;;;;;;5056062;28;20082;-76
2021/07/11 06:43:32;;;;;;;17.70;7.10;;;18.10;99.90;;;;;;5055955;28;20007;-77
2021/07/11 06:45:58;;;;;;;15.82;6.28;;;18.00;99.90;;;;;;5055452;28;20021;-77
2021/07/11 06:48:24;;;;;;;;;;;18.10;99.90;;;;;;5055917;28;20155;-75
2021/07/11 06:50:50;;;;;;;13.50;5.07;;;18.20;99.90;;;;;;5055417;28;19904;-76
2021/07/11 06:53:16;;;;;;;10.45;4.10;;;18.20;99.70;;;;;;5055435;28;20025;-76
2021/07/11 06:55:42;;;;;;;12.27;4.90;;;18.40;98.20;;;;;;5055321;28;20475;-77
2021/07/11 06:58:07;;;;;;;15.88;5.15;;;18.50;98.80;;;;;;5055297;28;20092;-76
2021/07/11 07:00:33;;;;;;;;;;;18.50;99.00;;;;;;5055522;28;20493;-76
2021/07/11 07:02:59;;;;;;;11.98;4.70;;;18.50;98.70;;;;;;5054981;28;20377;-76
2021/07/11 07:05:25;;;;;;;10.50;4.78;;;18.60;99.00;;;;;;5055167;28;20021;-77
2021/07/11 07:07:51;;;;;;;11.93;4.78;;;18.90;98.90;;;;;;5055368;28;20032;-76
2021/07/11 07:10:17;;;;;;;11.80;4.70;;;19.00;98.00;;;;;;5055426;28;20009;-78
2021/07/11 07:12:44;;;;;;;11.15;4.65;;;18.90;98.20;;;;;;5055274;28;20029;-75
2021/07/11 07:15:11;;;;;;;9.55;4.05;;;19.00;98.60;;;;;;5055108;28;20063;-75
2021/07/11 07:17:38;;;;;;;9.00;3.90;;;19.30;97.60;;;;;;5054951;28;20028;-76
2021/07/11 07:20:06;;;;;;;11.88;4.13;;;18.80;97.70;;;;;;5054960;28;20025;-76
2021/07/11 07:22:33;;;;;;;10.98;4.15;;;18.40;98.70;;;;;;5054990;28;20021;-76
2021/07/11 07:24:59;;;;;;;11.98;3.85;;;18.20;98.80;;;;;;5054963;28;20033;-76
2021/07/11 07:27:25;;;;;;;9.75;3.80;;;18.30;98.30;;;;;;5054911;28;20013;-77
2021/07/11 07:29:51;;;;;;;10.65;4.00;;;18.60;98.30;;;;;;5054795;28;20017;-77
2021/07/11 07:32:17;;;;;;;11.77;4.20;;;18.90;97.90;;;;;;5054400;28;20028;-78
2021/07/11 07:34:42;;;;;;;12.82;4.22;;;19.00;97.70;;;;;;5054659;28;20029;-76
2021/07/11 07:37:08;;;;;;;11.80;4.10;;;19.00;97.40;;;;;;5054619;28;20021;-76
2021/07/11 07:39:34;;;;;;;9.50;4.35;;;18.70;98.00;;;;;;5054600;28;20171;-76
2021/07/11 07:42:00;;;;;;;13.55;4.75;;;18.40;98.50;;;;;;5054459;28;20537;-76
2021/07/11 07:44:26;;;;;;;12.18;4.00;;;18.30;99.60;;;;;;5054547;28;20025;-76
2021/07/11 07:46:52;;;;;;;9.02;3.50;;;18.50;99.00;;;;;;5054463;28;20508;-76
2021/07/11 07:49:18;;;;;;;8.15;3.17;;;18.70;97.60;;;;;;5054415;28;20162;-76
2021/07/11 07:51:44;;;;;;;8.82;3.40;;;18.70;98.30;;;;;;5054354;28;20029;-76
2021/07/11 07:54:10;;;;;;;8.32;3.38;;;18.90;97.20;;;;;;5054348;28;20382;-77
2021/07/11 07:56:35;;;;;;;8.77;3.38;;;18.60;97.60;;;;;;5053004;28;20025;-76
2021/07/11 07:59:01;;;;;;;10.85;3.20;;;18.70;97.80;;;;;;5054191;28;20032;-78
2021/07/11 08:01:27;;;;;;;6.90;3.28;;;19.00;97.40;;;;;;5053834;28;20051;-77
2021/07/11 08:03:53;;;;;;;12.95;3.30;;;19.20;96.90;;;;;;5054352;28;20029;-75
2021/07/11 08:06:18;;;;;;;7.60;3.03;;;19.30;96.00;;;;;;5053913;28;20097;-76
2021/07/11 08:08:44;;;;;;;6.55;2.90;;;19.20;95.60;;;;;;5054041;28;20473;-77
2021/07/11 08:11:10;;;;;;;8.52;3.20;;;19.10;96.20;;;;;;5053839;28;20429;-76
2021/07/11 08:13:37;;;;;;;6.95;3.30;;;19.20;96.20;;;;;;5053985;28;20060;-76
2021/07/11 08:16:04;;;;;;;9.75;2.85;;;19.40;94.90;;;;;;5053831;28;20540;-75
2021/07/11 08:18:30;;;;;;;6.32;2.78;;;19.70;95.30;;;;;;5053905;28;20389;-77
2021/07/11 08:20:55;;;;;;;8.10;2.42;;;19.90;94.40;;;;;;5053741;28;20036;-76
2021/07/11 08:23:21;;;;;;;7.57;2.63;;;20.00;94.40;;;;;;5053701;28;20017;-75
2021/07/11 08:25:47;;;;;;;9.55;2.92;;;19.90;94.60;;;;;;5053678;28;20025;-75
2021/07/11 08:28:13;;;;;;;7.82;3.00;;;20.30;94.60;;;;;;5054075;28;20021;-76
2021/07/11 08:30:39;;;;;;;6.35;2.97;;;20.60;93.30;;;;;;5053778;28;20021;-75
2021/07/11 08:33:05;;;;;;;8.85;2.80;;;20.10;94.20;;;;;;5053572;28;20060;-76
2021/07/11 08:35:31;;;;;;;9.57;3.08;;;20.30;94.00;;;;;;5053623;28;20439;-76
2021/07/11 08:37:56;;;;;;;7.78;2.97;;;20.20;94.20;;;;;;5052159;28;20384;-76
2021/07/11 08:40:23;;;;;;;6.03;2.90;;;20.50;93.50;;;;;;5053669;28;20032;-77
2021/07/11 08:42:53;;;;;;;8.70;3.20;;;20.40;93.80;;;;;;5051424;28;20493;-76
2021/07/11 08:45:19;;;;;;;6.18;2.40;;;20.30;93.40;;;;;;5053576;28;20445;-76
2021/07/11 08:47:45;;;;;;;7.88;2.80;;;21.20;92.60;;;;;;5053362;28;20074;-77
2021/07/11 08:50:14;;;;;;;7.35;2.63;;;21.60;91.00;;;;;;5053297;28;20420;-77
2021/07/11 08:52:40;;;;;;;10.55;2.90;;;21.10;91.60;;;;;;5053253;28;20033;-76
2021/07/11 08:55:13;;;;;;;8.25;2.80;;;21.00;92.20;;;;;;5053240;28;20454;-77
2021/07/11 08:57:39;;;;;;;6.22;2.88;;;21.30;91.50;;;;;;5053224;28;20036;-76
2021/07/11 09:00:06;;;;;;;9.85;2.72;;;21.20;90.60;;;;;;5052719;28;20041;-75
2021/07/11 09:02:32;;;;;;;8.93;2.38;;;21.50;91.00;;;;;;5052829;28;20128;-78
2021/07/11 09:04:59;;;;;;;7.95;3.00;;;21.50;90.20;;;;;;5053256;28;20045;-76
2021/07/11 09:07:25;;;;;;;8.35;2.70;;;21.10;90.50;;;;;;5051748;28;20112;-76
2021/07/11 09:09:56;;;;;;;11.30;3.00;;;21.00;91.10;;;;;;5053191;28;20021;-76
2021/07/11 09:12:22;;;;;;;7.32;2.78;;;21.10;90.90;;;;;;5052998;28;20024;-76
2021/07/11 09:14:48;;;;;;;7.28;2.92;;;21.50;90.70;;;;;;5051537;28;20087;-77
2021/07/11 09:17:14;;;;;;;6.05;2.60;;;21.80;90.40;;;;;;5053265;28;20032;-78
2021/07/11 09:19:48;;;;;;;6.38;2.60;;;21.80;89.60;;;;;;5052895;28;20025;-76
2021/07/11 09:22:25;;;;;;;7.43;2.60;;;22.10;89.70;;;;;;5052898;28;20102;-77
2021/07/11 09:25:00;;;;;;;7.25;2.53;;;22.10;87.50;;;;;;5052939;28;20442;-77
2021/07/11 09:27:32;;;;;;;6.97;2.40;;;21.80;90.00;;;;;;5053004;28;20429;-76
2021/07/11 09:29:59;;;;;;;11.07;2.30;;;22.00;89.50;;;;;;5052878;28;20422;-76
2021/07/11 09:32:30;;;;;;;5.78;2.13;;;21.70;89.00;;;;;;5052864;28;20045;-75
2021/07/11 09:35:27;;;;;;;5.80;2.10;;;21.70;86.80;;;;;;5053136;28;20100;-76
2021/07/11 09:37:56;;;;;;;6.57;2.20;;;21.70;84.60;;;;;;5052418;28;20075;-75
2021/07/11 09:40:24;;;;;;;6.43;2.30;;;21.80;87.70;;;;;;5052718;28;20017;-77
2021/07/11 09:42:52;;;;;;;6.75;2.28;;;22.20;88.10;;;;;;5052678;28;20489;-76
2021/07/11 09:45:29;;;;;;;6.30;2.60;;;22.80;85.00;;;;;;5053428;28;20377;-77
2021/07/11 09:48:06;;;;;;;7.28;2.55;;;22.70;85.80;;;;;;5052704;28;20021;-76
2021/07/11 09:50:33;;;;;;;6.57;2.35;;;22.70;85.90;;;;;;5052714;28;20021;-76
2021/07/11 09:53:00;;;;;;;6.18;2.33;;;22.70;84.30;;;;;;5052865;28;20023;-76
2021/07/11 09:55:28;;;;;;;8.65;2.53;;;22.30;84.70;;;;;;5055028;28;20021;-76
2021/07/11 09:57:57;;;;;;;8.02;2.50;;;21.90;87.10;;;;;;5056489;28;20449;-77
2021/07/11 10:00:24;;;;;;;8.73;2.90;;;22.00;86.90;;;;;;5056248;28;20519;-78
2021/07/11 10:02:54;;;;;;;7.28;2.55;;;21.80;88.20;;;;;;5056250;28;20036;-77
2021/07/11 10:05:20;;;;;;;10.18;2.97;;;22.10;88.30;;;;;;5056363;28;20033;-75
2021/07/11 10:07:46;;;;;;;6.05;2.30;;;22.20;86.50;;;;;;5056516;28;20021;-76
2021/07/11 10:10:15;;;;;;;4.97;2.10;;;22.70;85.70;;;;;;5056367;28;20024;-76
2021/07/11 10:12:42;;;;;;;9.70;2.40;;;22.70;82.60;;;;;;5054828;28;20392;-77
2021/07/11 10:15:21;;;;;;;6.38;2.45;;;22.40;83.90;;;;;;5056422;28;20174;-75
2021/07/11 10:17:54;;;;;;;9.05;2.55;;;22.20;85.80;;;;;;5054655;28;20464;-77
2021/07/11 10:20:22;;;;;;;10.07;2.70;;;22.40;85.70;;;;;;5056276;28;20029;-76
2021/07/11 10:22:52;;;;;;;9.00;2.88;;;21.70;88.20;;;;;;5055968;28;20100;-76
2021/07/11 10:25:21;;;;;;;10.88;2.72;;;21.60;89.80;;;;;;5056251;28;20025;-76
2021/07/11 10:27:48;;;;;;;6.60;2.70;;;21.40;90.30;;;;;;5055978;28;20017;-76
2021/07/11 10:30:15;;;;;;;6.07;2.33;;;21.50;89.60;;;;;;5054600;28;20055;-76
2021/07/11 10:32:41;;;;;;;5.47;2.20;;;21.60;88.60;;;;;;5055873;28;20023;-77
2021/07/11 10:35:19;;;;;;;7.47;2.30;;;21.60;85.20;;;;;;5055855;28;20095;-77
2021/07/11 10:37:51;;;;;;;6.47;2.33;;;21.80;85.50;;;;;;5054477;28;20409;-76
2021/07/11 10:40:23;;;;;;;8.73;2.65;;;21.80;86.40;;;;;;5055763;28;20021;-76
2021/07/11 10:42:50;;;;;;;6.22;2.40;;;21.70;87.20;;;;;;5055728;28;20459;-76
2021/07/11 10:45:18;;;;;;;8.85;2.60;;;22.20;86.80;;;;;;5055628;28;20481;-77
2021/07/11 10:47:45;;;;;;;6.50;2.60;;;22.50;87.80;;;;;;5055605;28;20009;-76
2021/07/11 10:50:31;;;;;;;6.53;2.65;;;22.30;87.40;;;;;;5055644;28;20021;-76
2021/07/11 10:52:59;;;;;;;6.78;3.10;;;21.70;89.90;;;;;;5055542;28;20067;-76
2021/07/11 10:55:35;;;;;;;6.03;2.60;;;21.10;90.20;;;;;;5054180;28;20140;-75
2021/07/11 10:58:11;;;;;;;9.05;2.60;;;21.40;90.50;;;;;;5055602;28;20021;-76
2021/07/11 11:00:37;;;;;;;5.78;2.40;;;21.70;90.50;;;;;;5055209;28;20045;-78
2021/07/11 11:03:19;;;;;;;10.55;2.88;;;22.00;88.20;;;;;;5055234;28;20017;-76
2021/07/11 11:05:47;;;;;;;6.57;2.60;;;21.60;90.00;;;;;;5055022;28;20029;-77
2021/07/11 11:08:19;;;;;;;10.18;3.00;;;21.50;90.10;;;;;;5053759;28;20018;-75
2021/07/11 11:10:46;;;;;;;7.35;2.90;;;21.30;91.30;;;;;;5055206;28;20028;-77
2021/07/11 11:13:26;;;;;;;6.95;2.88;;;21.00;91.80;;;;;;5055548;28;20031;-75
2021/07/11 11:16:00;;;;;;;8.82;3.20;;;21.10;91.90;;;;;;5055293;28;20099;-75
2021/07/11 11:18:33;;;;;;;7.72;3.08;;;20.70;92.60;;;;;;5055040;28;20053;-76
2021/07/11 11:21:02;;;;;;;7.35;3.20;;;20.80;92.50;;;;;;5055005;28;20036;-76
2021/07/11 11:23:35;;;;;;;6.72;2.90;;;21.30;91.50;;;;;;5054918;28;20028;-76
2021/07/11 11:26:02;;;;;;;10.13;3.40;;;21.60;90.80;;;;;;5055196;28;20025;-76
2021/07/11 11:28:34;;;;;;;8.55;3.30;;;21.40;91.10;;;;;;5054846;28;20025;-76
2021/07/11 11:31:08;;;;;;;7.13;3.50;;;21.60;90.90;;;;;;5054832;28;20029;-76
2021/07/11 11:33:59;;;;;;;9.07;3.55;;;21.40;90.60;;;;;;5055158;28;20048;-75
2021/07/11 11:36:28;;;;;;;8.48;3.50;;;20.70;92.20;;;;;;5054814;28;20067;-75
2021/07/11 11:38:55;;;;;;;12.85;3.60;;;20.70;93.00;;;;;;5054628;28;20482;-77
2021/07/11 11:41:23;;;;;;;7.32;3.40;;;20.80;92.70;;;;;;5054518;28;20029;-75
2021/07/11 11:43:49;;;;;;;8.95;3.17;;;21.20;91.70;;;;;;5054545;28;20013;-75
2021/07/11 11:46:26;;;;;;;7.65;3.10;;;21.20;92.10;;;;;;5054634;28;20052;-76
2021/07/11 11:49:00;;;;;;;8.60;3.08;;;21.50;91.60;;;;;;5054450;28;20025;-75
2021/07/11 11:51:27;;;;;;;12.63;6.07;;;21.70;91.50;;;;;;5054623;28;20050;-77
2021/07/11 11:53:52;;;;;;;9.25;3.28;;;21.60;91.30;;;;;;5054500;28;20021;-76
2021/07/11 11:56:19;;;;;;;9.00;3.35;;;21.60;91.20;;;;;;5054269;28;20051;-76
2021/07/11 11:58:45;;;;;;;9.18;3.70;;;22.00;91.30;;;;;;5054266;28;20024;-77
2021/07/11 12:01:13;;;;;;;10.63;3.20;;;22.10;90.90;;;;;;5053759;28;20045;-78
2021/07/11 12:03:41;;;;;;;6.97;3.40;;;22.00;90.60;;;;;;5054515;28;20027;-77
2021/07/11 12:06:16;;;;;;;19.15;12.90;;;21.40;91.00;;;;;;5054253;28;20028;-75
2021/07/11 12:08:44;;;;;;;17.40;11.18;;;21.30;91.50;;;;;;5054151;28;20366;-75
2021/07/11 12:11:11;;;;;;;10.05;4.80;;;21.50;91.70;;;;;;5054032;28;20462;-76
2021/07/11 12:13:38;;;;;;;13.32;6.28;;;21.60;92.00;;;;;;5054320;28;20017;-76
2021/07/11 12:16:14;;;;;;;10.05;4.47;;;21.40;92.10;;;;;;5052597;28;20462;-77
2021/07/11 12:18:52;;;;;;;11.32;5.68;;;21.60;92.00;;;;;;5052893;28;20095;-75
2021/07/11 12:21:21;;;;;;;10.00;3.85;;;21.60;92.30;;;;;;5053811;28;20082;-76
2021/07/11 12:24:04;;;;;;;11.65;4.10;;;21.50;91.80;;;;;;5052637;28;20064;-75
2021/07/11 12:26:35;;;;;;;7.85;3.47;;;22.10;91.30;;;;;;5053713;28;20057;-77
2021/07/11 12:29:02;;;;;;;11.38;4.00;;;22.10;90.40;;;;;;5053746;28;20473;-76
2021/07/11 12:31:30;;;;;;;7.22;3.17;;;22.60;89.60;;;;;;5053634;28;20432;-76
2021/07/11 12:34:03;;;;;;;8.75;3.33;;;23.20;88.00;;;;;;5053638;28;20024;-76
2021/07/11 12:36:30;;;;;;;7.07;3.20;;;22.90;86.20;;;;;;5053764;28;20481;-75
2021/07/11 12:39:00;;;;;;;9.82;3.80;;;22.50;88.40;;;;;;5053451;28;20032;-78
2021/07/11 12:41:32;;;;;;;8.15;3.55;;;21.80;89.80;;;;;;5053428;28;20025;-76
2021/07/11 12:43:58;;;;;;;9.80;3.80;;;21.80;89.50;;;;;;5053534;28;20078;-76
2021/07/11 12:46:26;;;;;;;9.82;3.72;;;21.80;90.20;;;;;;5053693;28;20123;-76
2021/07/11 12:49:01;;;;;;;9.68;4.07;;;21.50;91.20;;;;;;5053342;28;20489;-77
2021/07/11 12:51:29;;;;;;;10.95;4.10;;;21.40;92.00;;;;;;5053396;28;20032;-76
2021/07/11 12:54:00;;;;;;;12.52;5.85;;;21.20;91.90;;;;;;5053295;28;20025;-76
2021/07/11 12:56:28;;;;;;;10.15;3.80;;;20.90;93.00;;;;;;5053510;28;20028;-74